sensor_id;sensor_type;location;lat;lon;timestamp;P1;durP1;ratioP1;P2;durP2;ratioP2
49556;SDS011;35462;45.048;7.666;2023-03-31T00:12:57;5.43;;;2.38;;
49556;SDS011;35462;45.048;7.666;2023-03-31T00:28:00;7.50;;;2.70;;
49556;SDS011;35462;45.048;7.666;2023-03-31T00:43:07;4.35;;;2.28;;
49556;SDS011;35462;45.048;7.666;2023-03-31T00:58:23;6.22;;;1.88;;
49556;SDS011;35462;45.048;7.666;2023-03-31T01:13:31;4.03;;;2.13;;
49556;SDS011;35462;45.048;7.666;2023-03-31T01:28:43;4.72;;;2.17;;
49556;SDS011;35462;45.048;7.666;2023-03-31T01:58:58;7.00;;;2.65;;
49556;SDS011;35462;45.048;7.666;2023-03-31T02:14:07;7.80;;;3.55;;
49556;SDS011;35462;45.048;7.666;2023-03-31T02:29:13;5.13;;;2.53;;
49556;SDS011;35462;45.048;7.666;2023-03-31T02:44:17;8.35;;;3.42;;
49556;SDS011;35462;45.048;7.666;2023-03-31T02:59:25;7.88;;;3.47;;
49556;SDS011;35462;45.048;7.666;2023-03-31T03:29:46;10.57;;;3.83;;
49556;SDS011;35462;45.048;7.666;2023-03-31T03:44:49;6.20;;;2.60;;
49556;SDS011;35462;45.048;7.666;2023-03-31T03:59:53;6.03;;;3.08;;
49556;SDS011;35462;45.048;7.666;2023-03-31T04:14:57;7.15;;;2.63;;
49556;SDS011;35462;45.048;7.666;2023-03-31T04:30:01;4.75;;;2.50;;
49556;SDS011;35462;45.048;7.666;2023-03-31T04:45:05;7.25;;;3.63;;
49556;SDS011;35462;45.048;7.666;2023-03-31T05:00:10;6.90;;;4.28;;
49556;SDS011;35462;45.048;7.666;2023-03-31T05:15:14;5.50;;;2.95;;
49556;SDS011;35462;45.048;7.666;2023-03-31T05:30:18;9.57;;;4.00;;
49556;SDS011;35462;45.048;7.666;2023-03-31T05:45:22;8.48;;;4.13;;
49556;SDS011;35462;45.048;7.666;2023-03-31T06:00:26;6.78;;;3.53;;
49556;SDS011;35462;45.048;7.666;2023-03-31T06:15:30;11.30;;;4.95;;
49556;SDS011;35462;45.048;7.666;2023-03-31T06:30:34;10.23;;;5.63;;
49556;SDS011;35462;45.048;7.666;2023-03-31T06:45:38;11.00;;;5.78;;
49556;SDS011;35462;45.048;7.666;2023-03-31T07:00:42;12.80;;;5.00;;
49556;SDS011;35462;45.048;7.666;2023-03-31T07:15:48;11.55;;;5.70;;
49556;SDS011;35462;45.048;7.666;2023-03-31T07:30:52;16.25;;;6.53;;
49556;SDS011;35462;45.048;7.666;2023-03-31T07:45:56;11.90;;;6.40;;
49556;SDS011;35462;45.048;7.666;2023-03-31T08:01:00;11.23;;;6.50;;
49556;SDS011;35462;45.048;7.666;2023-03-31T08:16:04;13.52;;;6.47;;
49556;SDS011;35462;45.048;7.666;2023-03-31T08:31:10;9.00;;;4.57;;
49556;SDS011;35462;45.048;7.666;2023-03-31T08:46:14;9.45;;;4.65;;
49556;SDS011;35462;45.048;7.666;2023-03-31T09:31:33;10.18;;;3.28;;
49556;SDS011;35462;45.048;7.666;2023-03-31T09:46:37;9.75;;;3.45;;
49556;SDS011;35462;45.048;7.666;2023-03-31T10:01:43;6.40;;;2.58;;
49556;SDS011;35462;45.048;7.666;2023-03-31T10:16:50;7.82;;;3.33;;
49556;SDS011;35462;45.048;7.666;2023-03-31T11:02:19;9.30;;;3.53;;
49556;SDS011;35462;45.048;7.666;2023-03-31T11:47:53;12.60;;;6.43;;
49556;SDS011;35462;45.048;7.666;2023-03-31T12:18:12;12.18;;;5.35;;
49556;SDS011;35462;45.048;7.666;2023-03-31T12:33:21;10.00;;;4.80;;
49556;SDS011;35462;45.048;7.666;2023-03-31T13:18:48;8.63;;;4.75;;
49556;SDS011;35462;45.048;7.666;2023-03-31T14:49:37;11.90;;;5.47;;
49556;SDS011;35462;45.048;7.666;2023-03-31T15:04:41;11.77;;;5.82;;
49556;SDS011;35462;45.048;7.666;2023-03-31T15:19:51;10.83;;;5.53;;
49556;SDS011;35462;45.048;7.666;2023-03-31T15:34:58;8.90;;;4.88;;
49556;SDS011;35462;45.048;7.666;2023-03-31T16:35:29;10.50;;;5.82;;
49556;SDS011;35462;45.048;7.666;2023-03-31T16:50:34;11.50;;;3.40;;
49556;SDS011;35462;45.048;7.666;2023-03-31T17:05:39;4.88;;;3.13;;
49556;SDS011;35462;45.048;7.666;2023-03-31T17:20:45;6.90;;;3.80;;
49556;SDS011;35462;45.048;7.666;2023-03-31T17:35:49;4.82;;;2.40;;
49556;SDS011;35462;45.048;7.666;2023-03-31T17:50:57;3.30;;;1.80;;
49556;SDS011;35462;45.048;7.666;2023-03-31T18:06:09;4.15;;;0.85;;
49556;SDS011;35462;45.048;7.666;2023-03-31T18:21:14;0.93;;;0.40;;
49556;SDS011;35462;45.048;7.666;2023-03-31T18:36:18;7.10;;;0.85;;
49556;SDS011;35462;45.048;7.666;2023-03-31T18:51:23;2.53;;;0.40;;
49556;SDS011;35462;45.048;7.666;2023-03-31T19:06:27;1.63;;;0.50;;
49556;SDS011;35462;45.048;7.666;2023-03-31T19:21:31;4.82;;;2.22;;
49556;SDS011;35462;45.048;7.666;2023-03-31T19:36:35;12.32;;;4.30;;
49556;SDS011;35462;45.048;7.666;2023-03-31T19:51:40;4.32;;;1.40;;
49556;SDS011;35462;45.048;7.666;2023-03-31T20:06:44;5.20;;;2.28;;
49556;SDS011;35462;45.048;7.666;2023-03-31T20:21:50;8.10;;;2.90;;
49556;SDS011;35462;45.048;7.666;2023-03-31T20:36:57;7.50;;;0.70;;
49556;SDS011;35462;45.048;7.666;2023-03-31T20:52:01;1.38;;;0.15;;
49556;SDS011;35462;45.048;7.666;2023-03-31T21:07:06;3.03;;;0.30;;
49556;SDS011;35462;45.048;7.666;2023-03-31T21:22:10;5.03;;;0.82;;
49556;SDS011;35462;45.048;7.666;2023-03-31T21:37:14;0.30;;;0.10;;
49556;SDS011;35462;45.048;7.666;2023-03-31T21:52:18;0.47;;;0.17;;
49556;SDS011;35462;45.048;7.666;2023-03-31T22:07:22;1.50;;;0.22;;
49556;SDS011;35462;45.048;7.666;2023-03-31T22:22:26;0.85;;;0.10;;
49556;SDS011;35462;45.048;7.666;2023-03-31T22:37:30;1.85;;;0.10;;
49556;SDS011;35462;45.048;7.666;2023-03-31T22:52:33;0.98;;;0.20;;
49556;SDS011;35462;45.048;7.666;2023-03-31T23:07:37;2.10;;;0.55;;
49556;SDS011;35462;45.048;7.666;2023-03-31T23:22:41;0.20;;;0.00;;
49556;SDS011;35462;45.048;7.666;2023-03-31T23:37:45;0.00;;;0.00;;
49556;SDS011;35462;45.048;7.666;2023-03-31T23:52:49;1.10;;;0.10;;
